createdAt,value
2024-03-13T00:01:58.784Z,73.80
2024-03-13T00:04:01.905Z,73.70
2024-03-13T00:06:05.138Z,73.80
2024-03-13T00:08:09.134Z,73.80
2024-03-13T00:10:11.319Z,74.00
2024-03-13T00:12:15.332Z,73.90
2024-03-13T00:14:17.921Z,73.80
2024-03-13T00:16:20.646Z,73.80
2024-03-13T00:18:22.738Z,73.90
2024-03-13T00:20:24.697Z,73.90
2024-03-13T00:22:27.360Z,74.00
2024-03-13T00:24:29.453Z,74.00
2024-03-13T00:26:31.987Z,74.40
2024-03-13T00:28:34.131Z,73.70
2024-03-13T00:30:36.852Z,73.80
2024-03-13T00:32:39.278Z,73.80
2024-03-13T00:34:41.714Z,74.10
2024-03-13T00:36:44.629Z,73.50
2024-03-13T00:38:46.743Z,73.70
2024-03-13T00:40:49.584Z,73.70
2024-03-13T00:42:51.516Z,73.70
2024-03-13T00:44:54.617Z,74.20
2024-03-13T00:46:57.398Z,73.50
2024-03-13T00:48:59.489Z,73.70
2024-03-13T00:51:02.060Z,73.70
2024-03-13T00:53:04.489Z,73.70
2024-03-13T00:55:11.373Z,74.00
2024-03-13T00:57:14.617Z,74.20
2024-03-13T00:59:17.763Z,74.10
2024-03-13T01:01:19.815Z,74.20
2024-03-13T01:03:23.712Z,74.00
2024-03-13T01:05:25.913Z,74.70
2024-03-13T01:07:27.977Z,73.80
2024-03-13T01:09:30.052Z,73.60
2024-03-13T01:11:32.683Z,73.60
2024-03-13T01:13:34.719Z,74.00
2024-03-13T01:15:36.653Z,74.00
2024-03-13T01:17:39.535Z,73.40
2024-03-13T01:19:42.037Z,73.30
2024-03-13T01:21:44.091Z,73.40
2024-03-13T01:23:46.172Z,73.40
2024-03-13T01:25:49.555Z,73.20
2024-03-13T01:27:51.811Z,73.20
2024-03-13T01:29:53.798Z,73.20
2024-03-13T01:31:59.696Z,73.20
2024-03-13T01:34:02.734Z,73.10
2024-03-13T01:36:05.719Z,73.10
2024-03-13T01:38:07.654Z,73.10
2024-03-13T01:40:18.110Z,73.10
2024-03-13T01:42:38.450Z,73.20
2024-03-13T01:45:24.722Z,73.20
2024-03-13T01:47:45.412Z,74.00
2024-03-13T01:50:05.973Z,73.40
2024-03-13T01:52:29.392Z,73.10
2024-03-13T01:54:50.519Z,73.20
2024-03-13T01:57:01.159Z,73.20
2024-03-13T01:59:04.610Z,73.20
2024-03-13T02:01:25.639Z,73.20
2024-03-13T02:03:29.037Z,73.50
2024-03-13T02:05:31.137Z,73.40
2024-03-13T02:07:33.408Z,73.50
2024-03-13T02:09:35.394Z,73.60
2024-03-13T02:11:38.004Z,73.20
2024-03-13T02:13:42.922Z,73.20
2024-03-13T02:15:45.692Z,73.20
2024-03-13T02:17:47.677Z,73.10
2024-03-13T02:19:51.916Z,73.40
2024-03-13T02:22:00.850Z,73.20
2024-03-13T02:24:02.951Z,73.40
2024-03-13T02:26:05.070Z,73.30
2024-03-13T02:28:08.335Z,73.30
2024-03-13T02:30:12.174Z,73.40
2024-03-13T02:32:14.233Z,73.50
2024-03-13T02:34:19.892Z,73.40
2024-03-13T02:36:21.920Z,73.90
2024-03-13T02:38:23.901Z,74.40
2024-03-13T02:40:25.938Z,73.80
2024-03-13T02:42:27.959Z,73.90
2024-03-13T02:44:29.915Z,73.80
2024-03-13T02:46:31.941Z,73.80
2024-03-13T02:48:34.070Z,73.70
2024-03-13T02:50:36.425Z,73.70
2024-03-13T02:52:39.672Z,73.70
2024-03-13T02:54:41.670Z,73.50
2024-03-13T02:56:47.731Z,73.50
2024-03-13T02:58:50.459Z,73.70
2024-03-13T03:00:52.448Z,73.40
2024-03-13T03:02:57.620Z,73.60
2024-03-13T03:04:59.587Z,73.30
2024-03-13T03:07:02.595Z,73.40
2024-03-13T03:09:05.388Z,73.50
2024-03-13T03:11:07.955Z,73.50
2024-03-13T03:13:11.527Z,74.00
2024-03-13T03:15:13.875Z,73.40
2024-03-13T03:17:17.525Z,73.50
2024-03-13T03:19:24.690Z,73.60
2024-03-13T03:21:26.892Z,73.80
2024-03-13T03:23:28.870Z,73.70
2024-03-13T03:25:31.045Z,73.50
2024-03-13T03:27:33.039Z,73.70
2024-03-13T03:29:35.018Z,73.70
2024-03-13T03:31:36.985Z,73.70
2024-03-13T03:33:38.962Z,73.70
2024-03-13T03:35:41.308Z,73.80
2024-03-13T03:37:43.369Z,73.80
2024-03-13T03:39:45.394Z,73.80
2024-03-13T03:41:47.592Z,73.80
2024-03-13T03:43:50.068Z,73.80
2024-03-13T03:45:52.116Z,73.80
2024-03-13T03:48:01.122Z,73.80
2024-03-13T03:50:08.284Z,73.80
2024-03-13T03:52:12.862Z,74.00
2024-03-13T03:54:14.893Z,73.90
2024-03-13T03:56:17.379Z,73.80
2024-03-13T03:58:19.339Z,73.80
2024-03-13T04:00:24.454Z,73.80
2024-03-13T04:02:28.729Z,73.80
2024-03-13T04:04:30.743Z,73.80
2024-03-13T04:06:33.050Z,73.90
2024-03-13T04:08:35.020Z,74.00
2024-03-13T04:10:40.157Z,74.00
2024-03-13T04:12:42.366Z,74.00
2024-03-13T04:14:45.611Z,74.00
2024-03-13T04:16:47.556Z,74.00
2024-03-13T04:18:49.493Z,74.00
2024-03-13T04:20:51.827Z,73.90
2024-03-13T04:22:55.948Z,73.80
2024-03-13T04:24:58.035Z,73.80
2024-03-13T04:27:00.100Z,73.80
2024-03-13T04:29:02.100Z,73.80
2024-03-13T04:31:04.291Z,73.80
2024-03-13T04:33:06.458Z,73.90
2024-03-13T04:35:08.736Z,73.80
2024-03-13T04:37:13.668Z,73.90
2024-03-13T04:39:17.637Z,74.00
2024-03-13T04:41:19.916Z,74.00
2024-03-13T04:43:21.866Z,73.90
2024-03-13T04:45:24.005Z,74.00
2024-03-13T04:47:26.186Z,74.00
2024-03-13T04:49:28.265Z,74.10
2024-03-13T04:51:30.264Z,74.10
2024-03-13T04:53:32.207Z,74.10
2024-03-13T04:55:34.245Z,74.20
2024-03-13T04:57:36.319Z,75.00
2024-03-13T04:59:38.372Z,74.20
2024-03-13T05:01:40.425Z,74.10
2024-03-13T05:03:43.402Z,74.10
2024-03-13T05:05:46.807Z,74.00
2024-03-13T05:07:48.775Z,74.00
2024-03-13T05:09:52.853Z,74.00
2024-03-13T05:11:54.920Z,73.90
2024-03-13T05:13:56.877Z,73.80
2024-03-13T05:15:59.345Z,73.90
2024-03-13T05:18:02.477Z,74.00
2024-03-13T05:20:08.737Z,74.00
2024-03-13T05:22:10.897Z,74.10
2024-03-13T05:24:14.912Z,74.10
2024-03-13T05:26:16.924Z,74.10
2024-03-13T05:28:22.928Z,74.10
2024-03-13T05:30:25.165Z,74.20
2024-03-13T05:32:27.188Z,74.30
2024-03-13T05:34:29.165Z,74.20
2024-03-13T05:36:31.173Z,74.20
2024-03-13T05:38:33.157Z,74.20
2024-03-13T05:40:35.556Z,74.20
2024-03-13T05:42:37.584Z,74.10
2024-03-13T05:44:40.792Z,74.10
2024-03-13T05:46:43.302Z,74.10
2024-03-13T05:48:48.769Z,74.10
2024-03-13T05:50:50.751Z,75.00
2024-03-13T05:52:52.830Z,74.20
2024-03-13T05:54:55.204Z,74.20
2024-03-13T05:56:57.499Z,74.30
2024-03-13T05:58:59.467Z,74.30
2024-03-13T06:01:03.302Z,74.30
2024-03-13T06:03:05.633Z,74.30
2024-03-13T06:05:13.070Z,74.30
2024-03-13T06:07:15.598Z,74.20
2024-03-13T06:09:17.912Z,74.10
2024-03-13T06:11:20.516Z,74.10
2024-03-13T06:13:22.556Z,74.10
2024-03-13T06:15:24.606Z,74.50
2024-03-13T06:17:28.133Z,73.90
2024-03-13T06:19:31.447Z,74.00
2024-03-13T06:21:33.489Z,74.00
2024-03-13T06:23:39.844Z,74.00
2024-03-13T06:25:43.023Z,74.10
2024-03-13T06:27:45.244Z,74.10
2024-03-13T06:30:00.505Z,74.10
2024-03-13T06:32:02.938Z,74.10
2024-03-13T06:34:04.997Z,74.10
2024-03-13T06:36:07.179Z,74.10
2024-03-13T06:38:09.695Z,74.10
2024-03-13T06:40:12.193Z,74.10
2024-03-13T06:42:14.263Z,74.10
2024-03-13T06:44:16.404Z,74.10
2024-03-13T06:46:18.526Z,74.20
2024-03-13T06:48:20.528Z,74.20
2024-03-13T06:50:22.537Z,74.30
2024-03-13T06:52:25.635Z,74.30
2024-03-13T06:54:27.712Z,74.40
2024-03-13T06:56:29.639Z,74.30
2024-03-13T06:58:32.407Z,74.30
2024-03-13T07:00:34.905Z,74.30
2024-03-13T07:02:39.780Z,74.50
2024-03-13T07:04:41.909Z,74.00
2024-03-13T07:06:43.966Z,74.10
2024-03-13T07:08:46.112Z,74.10
2024-03-13T07:10:48.307Z,74.20
2024-03-13T07:12:50.447Z,74.10
2024-03-13T07:14:52.584Z,74.10
2024-03-13T07:16:54.683Z,74.20
2024-03-13T07:19:00.000Z,75.00
2024-03-13T07:21:03.476Z,74.20
2024-03-13T07:23:05.437Z,74.20
2024-03-13T07:25:11.200Z,74.20
2024-03-13T07:27:13.591Z,74.40
2024-03-13T07:29:15.553Z,74.50
2024-03-13T07:31:17.696Z,74.50
2024-03-13T07:33:19.793Z,74.30
2024-03-13T07:35:22.415Z,74.30
2024-03-13T07:37:25.406Z,74.10
2024-03-13T07:39:29.948Z,74.20
2024-03-13T07:41:35.410Z,74.20
2024-03-13T07:43:37.426Z,74.30
2024-03-13T07:45:44.053Z,74.30
2024-03-13T07:47:46.126Z,74.40
2024-03-13T07:49:48.724Z,74.70
2024-03-13T07:51:50.957Z,74.60
2024-03-13T07:53:52.845Z,74.50
2024-03-13T07:55:54.724Z,74.60
2024-03-13T07:57:56.575Z,74.70
2024-03-13T07:59:58.534Z,74.50
2024-03-13T08:02:00.463Z,74.20
2024-03-13T08:04:02.434Z,74.40
2024-03-13T09:06:42.719Z,75.00
2024-03-13T09:10:49.103Z,75.00
2024-03-13T09:12:51.779Z,75.00
2024-03-13T09:14:53.636Z,75.00
2024-03-13T09:16:55.603Z,75.10
2024-03-13T09:18:58.073Z,75.10
2024-03-13T09:21:00.114Z,75.20
2024-03-13T09:23:01.990Z,75.10
2024-03-13T09:25:04.600Z,75.20
2024-03-13T09:27:07.248Z,75.10
2024-03-13T09:29:09.235Z,75.10
2024-03-13T09:31:11.483Z,75.10
2024-03-13T09:33:14.703Z,75.10
2024-03-13T09:35:19.082Z,75.00
2024-03-13T09:37:22.039Z,75.00
2024-03-13T09:39:24.076Z,74.80
2024-03-13T09:41:26.051Z,74.80
2024-03-13T09:43:28.593Z,74.80
2024-03-13T09:45:30.620Z,74.90
2024-03-13T09:47:33.026Z,75.00
2024-03-13T09:49:36.651Z,75.10
2024-03-13T09:51:39.616Z,75.10
2024-03-13T09:53:43.186Z,75.10
2024-03-13T09:55:46.932Z,75.10
2024-03-13T09:57:52.734Z,75.00
2024-03-13T09:59:57.740Z,75.20
2024-03-13T10:02:02.722Z,75.10
2024-03-13T10:04:12.566Z,75.20
2024-03-13T10:06:15.471Z,75.10
2024-03-13T10:08:19.936Z,74.90
2024-03-13T10:10:27.473Z,74.90
2024-03-13T10:12:29.863Z,75.00
2024-03-13T10:14:33.041Z,74.90
2024-03-13T10:16:36.219Z,74.80
2024-03-13T10:18:48.666Z,74.70
2024-03-13T10:21:01.293Z,74.70
2024-03-13T10:23:05.422Z,74.70
2024-03-13T10:25:14.540Z,74.70
2024-03-13T10:27:16.904Z,74.80
2024-03-13T10:29:20.130Z,74.80
2024-03-13T10:31:25.365Z,74.80
2024-03-13T10:33:27.640Z,74.80
2024-03-13T10:35:29.751Z,74.80
2024-03-13T10:37:33.109Z,74.80
2024-03-13T10:39:36.705Z,74.80
2024-03-13T10:41:38.788Z,74.80
2024-03-13T10:43:43.348Z,74.70
2024-03-13T10:45:49.852Z,74.70
2024-03-13T10:47:51.995Z,74.70
2024-03-13T10:49:54.021Z,74.70
2024-03-13T10:51:59.150Z,74.70
2024-03-13T10:54:06.923Z,74.60
2024-03-13T10:56:16.361Z,74.60
2024-03-13T10:58:22.227Z,74.50
2024-03-13T11:00:24.155Z,74.30
2024-03-13T11:02:26.085Z,74.20
2024-03-13T11:04:28.666Z,74.20
2024-03-13T11:06:30.710Z,74.20
2024-03-13T11:08:33.798Z,74.50
2024-03-13T11:10:38.469Z,74.10
2024-03-13T11:12:46.873Z,74.20
2024-03-13T11:14:54.094Z,74.40
2024-03-13T11:16:59.265Z,75.20
2024-03-13T11:19:04.784Z,74.50
2024-03-13T11:21:10.872Z,74.50
2024-03-13T11:23:21.297Z,74.70
2024-03-13T11:25:24.145Z,74.80
2024-03-13T11:27:28.093Z,74.70
2024-03-13T11:29:38.665Z,74.90
2024-03-13T11:31:42.868Z,74.40
2024-03-13T11:33:45.240Z,74.30
2024-03-13T11:35:48.791Z,74.30
2024-03-13T11:37:51.914Z,74.40
2024-03-13T11:39:56.069Z,74.40
2024-03-13T11:42:10.984Z,74.40
2024-03-13T11:44:17.461Z,74.60
2024-03-13T11:46:24.146Z,74.40
2024-03-13T11:48:26.469Z,74.80
2024-03-13T11:50:28.766Z,74.40
2024-03-13T11:52:32.163Z,74.40
2024-03-13T11:54:34.346Z,74.40
2024-03-13T11:56:36.391Z,74.40
2024-03-13T11:58:40.109Z,74.40
2024-03-13T12:00:42.109Z,74.20
2024-03-13T12:02:47.247Z,74.20
2024-03-13T12:04:49.073Z,74.40
2024-03-13T12:06:52.720Z,74.30
2024-03-13T12:08:54.624Z,74.40
2024-03-13T12:10:56.629Z,74.30
2024-03-13T12:12:59.352Z,74.20
2024-03-13T12:15:01.401Z,74.30
2024-03-13T12:17:03.344Z,74.30
2024-03-13T12:19:08.561Z,74.20
2024-03-13T12:21:12.954Z,74.20
2024-03-13T12:23:19.243Z,74.20
2024-03-13T12:25:21.596Z,74.30
2024-03-13T12:27:26.117Z,74.20
2024-03-13T12:29:29.218Z,74.40
2024-03-13T12:31:31.047Z,74.50
2024-03-13T12:33:35.403Z,74.50
2024-03-13T12:35:37.600Z,74.60
2024-03-13T12:37:39.868Z,74.80
2024-03-13T12:39:41.996Z,74.80
2024-03-13T12:41:45.992Z,75.00
2024-03-13T12:43:47.968Z,75.30
2024-03-13T12:45:49.861Z,75.40
2024-03-13T12:47:51.893Z,75.40
2024-03-13T12:49:54.437Z,75.20
2024-03-13T12:51:56.319Z,75.10
2024-03-13T12:54:07.842Z,74.90
2024-03-13T12:56:14.168Z,75.40
2024-03-13T12:58:17.929Z,75.30
2024-03-13T13:00:21.174Z,75.20
2024-03-13T13:02:23.731Z,75.20
2024-03-13T13:04:25.803Z,75.20
2024-03-13T13:06:28.097Z,75.10
2024-03-13T13:08:30.414Z,75.00
2024-03-13T13:10:32.295Z,75.00
2024-03-13T13:12:34.237Z,75.00
2024-03-13T13:14:36.207Z,75.10
2024-03-13T13:16:41.178Z,75.00
2024-03-13T13:18:44.129Z,75.10
2024-03-13T13:20:46.253Z,75.10
2024-03-13T13:22:48.363Z,75.00
2024-03-13T13:24:51.172Z,75.00
2024-03-13T13:26:53.098Z,74.90
2024-03-13T13:29:08.557Z,75.10
2024-03-13T13:31:11.274Z,74.70
2024-03-13T13:33:13.678Z,74.80
2024-03-13T13:35:15.946Z,74.80
2024-03-13T13:37:21.202Z,74.80
2024-03-13T13:39:23.995Z,75.10
2024-03-13T13:41:25.903Z,75.10
2024-03-13T13:43:29.780Z,75.40
2024-03-13T13:45:32.814Z,75.00
2024-03-13T13:47:34.740Z,74.90
2024-03-13T13:49:43.875Z,75.00
2024-03-13T13:51:45.767Z,75.30
2024-03-13T13:53:47.723Z,75.20
2024-03-13T13:55:49.736Z,75.20
2024-03-13T13:57:53.642Z,75.20
2024-03-13T13:59:56.076Z,75.30
2024-03-13T14:01:58.199Z,76.20
2024-03-13T14:04:00.064Z,76.20
2024-03-13T14:06:02.612Z,75.40
2024-03-13T14:08:06.681Z,75.40
2024-03-13T14:10:12.386Z,75.40
2024-03-13T14:12:14.717Z,75.50
2024-03-13T14:14:17.200Z,75.50
2024-03-13T14:16:19.158Z,75.60
2024-03-13T14:18:21.189Z,75.60
2024-03-13T14:20:24.522Z,75.50
2024-03-13T14:22:26.910Z,75.70
2024-03-13T14:24:29.172Z,75.60
2024-03-13T14:26:31.095Z,75.40
2024-03-13T14:28:33.383Z,75.40
2024-03-13T14:30:35.397Z,75.30
2024-03-13T14:32:37.851Z,75.30
2024-03-13T14:34:54.510Z,75.30
2024-03-13T14:37:01.663Z,75.40
2024-03-13T14:39:04.469Z,75.40
2024-03-13T14:41:09.373Z,75.70
2024-03-13T14:43:11.311Z,75.20
2024-03-13T14:45:13.296Z,75.30
2024-03-13T14:47:15.205Z,75.40
2024-03-13T14:49:19.913Z,75.40
2024-03-13T14:51:22.033Z,75.40
2024-03-13T14:53:24.038Z,75.40
2024-03-13T14:55:27.858Z,75.40
2024-03-13T14:57:30.295Z,75.40
2024-03-13T14:59:32.300Z,75.40
2024-03-13T15:01:37.098Z,75.40
2024-03-13T15:03:51.505Z,75.40
2024-03-13T15:05:54.368Z,75.40
2024-03-13T15:07:56.346Z,75.30
2024-03-13T15:09:58.227Z,75.30
2024-03-13T15:12:00.152Z,75.30
2024-03-13T15:14:02.079Z,75.30
2024-03-13T15:16:07.439Z,75.40
2024-03-13T15:18:09.419Z,75.40
2024-03-13T15:20:14.648Z,75.30
2024-03-13T15:22:16.684Z,75.30
2024-03-13T15:24:18.663Z,75.50
2024-03-13T15:26:20.710Z,75.40
2024-03-13T15:28:22.751Z,75.40
2024-03-13T15:30:24.768Z,75.40
2024-03-13T15:32:27.097Z,75.40
2024-03-13T15:34:31.772Z,75.50
2024-03-13T15:36:33.925Z,75.60
2024-03-13T15:38:35.933Z,75.50
2024-03-13T15:40:37.853Z,75.50
2024-03-13T15:42:41.339Z,75.50
2024-03-13T15:44:43.437Z,75.60
2024-03-13T15:46:45.535Z,75.60
2024-03-13T15:48:47.461Z,75.70
2024-03-13T15:50:50.073Z,75.50
2024-03-13T15:52:52.262Z,75.60
2024-03-13T15:54:54.238Z,75.60
2024-03-13T15:56:56.269Z,75.60
2024-03-13T15:58:58.392Z,75.70
2024-03-13T16:01:00.433Z,75.60
2024-03-13T16:03:05.645Z,75.70
2024-03-13T16:05:08.106Z,75.80
2024-03-13T16:07:12.628Z,75.80
2024-03-13T16:09:18.365Z,75.90
2024-03-13T16:11:24.507Z,75.90
2024-03-13T16:13:26.454Z,76.00
2024-03-13T16:15:28.868Z,76.00
2024-03-13T16:17:30.897Z,76.00
2024-03-13T16:19:32.877Z,76.00
2024-03-13T16:21:36.882Z,75.90
2024-03-13T16:23:38.941Z,75.90
2024-03-13T16:25:40.926Z,75.90
2024-03-13T16:27:42.937Z,76.00
2024-03-13T16:29:45.946Z,76.00
2024-03-13T16:31:48.831Z,76.00
2024-03-13T16:33:53.405Z,76.00
2024-03-13T16:35:55.931Z,76.30
2024-03-13T16:38:00.202Z,75.70
2024-03-13T16:40:05.493Z,75.70
2024-03-13T16:42:07.653Z,75.80
2024-03-13T16:44:09.778Z,75.80
2024-03-13T16:46:11.832Z,75.80
2024-03-13T16:48:13.999Z,75.80
2024-03-13T16:50:17.557Z,75.80
2024-03-13T16:52:20.700Z,75.90
2024-03-13T16:54:23.036Z,75.90
2024-03-13T16:56:25.052Z,75.90
2024-03-13T16:58:27.109Z,75.90
2024-03-13T17:00:29.202Z,75.90
2024-03-13T17:02:31.203Z,75.90
2024-03-13T17:04:33.961Z,76.00
2024-03-13T17:06:35.926Z,75.90
2024-03-13T17:08:37.813Z,75.90
2024-03-13T17:10:39.816Z,75.90
2024-03-13T17:12:42.130Z,75.90
2024-03-13T17:14:44.071Z,75.90
2024-03-13T17:16:46.825Z,75.90
2024-03-13T17:18:48.815Z,75.90
2024-03-13T17:20:51.941Z,76.20
2024-03-13T17:22:54.565Z,75.70
2024-03-13T17:24:56.464Z,75.80
2024-03-13T17:26:58.501Z,75.80
2024-03-13T17:29:00.395Z,75.80
2024-03-13T17:31:03.832Z,75.90
2024-03-13T17:33:06.747Z,75.80
2024-03-13T17:35:10.455Z,75.90
2024-03-13T17:37:12.579Z,75.80
2024-03-13T17:39:14.597Z,75.90
2024-03-13T17:41:16.571Z,75.80
2024-03-13T17:43:19.439Z,75.80
2024-03-13T17:45:21.521Z,75.80
2024-03-13T17:47:26.462Z,75.70
2024-03-13T17:49:28.893Z,75.80
2024-03-13T17:51:31.829Z,75.70
2024-03-13T17:53:35.233Z,75.70
2024-03-13T17:55:37.156Z,75.70
2024-03-13T17:57:39.055Z,75.70
2024-03-13T17:59:43.271Z,75.70
2024-03-13T18:01:45.467Z,75.70
2024-03-13T18:03:47.327Z,75.70
2024-03-13T18:05:49.230Z,75.70
2024-03-13T18:07:52.160Z,75.60
2024-03-13T18:09:54.251Z,75.50
2024-03-13T18:11:56.148Z,75.90
2024-03-13T18:13:58.515Z,75.40
2024-03-13T18:16:01.013Z,75.40
2024-03-13T18:18:03.025Z,75.50
2024-03-13T18:20:09.578Z,75.40
2024-03-13T18:22:13.695Z,75.50
2024-03-13T18:24:18.115Z,75.50
2024-03-13T18:26:20.071Z,75.50
2024-03-13T18:28:22.262Z,75.50
2024-03-13T18:30:24.764Z,75.50
2024-03-13T18:32:26.743Z,75.40
2024-03-13T18:34:28.877Z,75.40
2024-03-13T18:36:30.829Z,75.30
2024-03-13T18:38:32.854Z,75.20
2024-03-13T18:40:36.179Z,75.30
2024-03-13T18:42:38.288Z,75.20
2024-03-13T18:44:41.983Z,75.10
2024-03-13T18:46:44.753Z,75.00
2024-03-13T18:48:47.351Z,75.00
2024-03-13T18:50:50.604Z,74.90
2024-03-13T18:52:54.846Z,74.90
2024-03-13T18:55:00.609Z,74.80
2024-03-13T18:57:04.379Z,74.70
2024-03-13T18:59:06.626Z,74.70
2024-03-13T19:01:08.963Z,74.60
2024-03-13T19:03:11.248Z,74.50
2024-03-13T19:05:22.773Z,74.50
2024-03-13T19:07:27.174Z,74.40
2024-03-13T19:09:29.228Z,74.30
2024-03-13T19:11:31.864Z,74.20
2024-03-13T19:13:34.114Z,74.10
2024-03-13T19:15:36.167Z,74.20
2024-03-13T19:17:44.588Z,73.90
2024-03-13T19:19:48.744Z,73.90
2024-03-13T19:22:01.710Z,73.80
2024-03-13T19:24:04.457Z,73.70
2024-03-13T19:26:06.920Z,73.50
2024-03-13T19:28:09.397Z,73.50
2024-03-13T19:30:11.690Z,73.40
2024-03-13T19:32:15.821Z,73.40
2024-03-13T19:34:18.406Z,73.30
2024-03-13T19:36:20.601Z,73.40
2024-03-13T19:38:24.804Z,73.30
2024-03-13T19:40:26.957Z,73.40
2024-03-13T19:42:29.036Z,73.40
2024-03-13T19:44:31.176Z,73.30
2024-03-13T19:46:33.327Z,73.30
2024-03-13T19:48:35.464Z,73.50
2024-03-13T19:50:40.618Z,73.40
2024-03-13T19:52:44.641Z,73.40
2024-03-13T19:54:47.652Z,73.40
2024-03-13T19:56:49.985Z,73.60
2024-03-13T19:58:52.206Z,73.60
2024-03-13T20:00:54.880Z,73.70
2024-03-13T20:02:58.431Z,73.80
2024-03-13T20:05:00.578Z,73.80
2024-03-13T20:07:02.599Z,73.90
2024-03-13T20:09:04.820Z,74.00
2024-03-13T20:11:07.129Z,74.00
2024-03-13T20:13:10.390Z,74.00
2024-03-13T20:15:12.521Z,74.10
2024-03-13T20:17:16.424Z,74.10
2024-03-13T20:19:18.621Z,74.20
2024-03-13T20:21:20.784Z,74.20
2024-03-13T20:23:23.131Z,74.30
2024-03-13T20:25:51.932Z,74.40
2024-03-13T20:27:56.980Z,74.50
2024-03-13T20:29:59.118Z,74.50
2024-03-13T20:32:01.234Z,74.60
2024-03-13T20:34:05.007Z,74.60
2024-03-13T20:36:09.566Z,74.60
2024-03-13T20:38:11.696Z,74.70
2024-03-13T20:40:14.301Z,74.90
2024-03-13T20:42:16.688Z,75.00
2024-03-13T20:44:19.175Z,75.10
2024-03-13T20:46:21.175Z,75.10
2024-03-13T20:48:24.227Z,75.20
2024-03-13T20:50:26.439Z,75.10
2024-03-13T20:52:28.665Z,75.20
2024-03-13T20:54:31.086Z,75.20
2024-03-13T20:56:33.236Z,75.20
2024-03-13T20:58:35.417Z,75.30
2024-03-13T21:00:42.106Z,75.30
2024-03-13T21:02:45.545Z,75.30
2024-03-13T21:04:47.583Z,75.30
2024-03-13T21:06:50.323Z,75.30
2024-03-13T21:08:52.727Z,75.30
2024-03-13T21:10:54.919Z,75.70
2024-03-13T21:12:57.330Z,75.10
2024-03-13T21:14:59.543Z,75.20
2024-03-13T21:17:01.659Z,75.30
2024-03-13T21:19:04.040Z,75.30
2024-03-13T21:21:06.861Z,75.40
2024-03-13T21:23:10.229Z,75.50
2024-03-13T21:25:12.884Z,75.40
2024-03-13T21:27:19.060Z,75.50
2024-03-13T21:29:24.331Z,75.70
2024-03-13T21:31:26.492Z,75.70
2024-03-13T21:33:28.670Z,75.70
2024-03-13T21:35:31.109Z,75.70
2024-03-13T21:37:33.159Z,75.70
2024-03-13T21:39:35.184Z,75.80
2024-03-13T21:41:38.116Z,75.70
2024-03-13T21:43:40.213Z,75.80
2024-03-13T21:45:42.970Z,75.80
2024-03-13T21:47:46.413Z,75.80
2024-03-13T21:49:50.425Z,76.10
2024-03-13T21:51:52.445Z,75.60
2024-03-13T21:53:55.358Z,75.70
2024-03-13T21:55:57.413Z,75.70
2024-03-13T21:57:59.417Z,75.60
2024-03-13T22:00:01.496Z,75.70
2024-03-13T22:02:06.962Z,75.70
2024-03-13T22:04:08.950Z,75.70
2024-03-13T22:06:10.871Z,75.70
2024-03-13T22:08:12.773Z,75.70
2024-03-13T22:10:15.367Z,75.80
2024-03-13T22:12:17.367Z,75.80
2024-03-13T22:14:19.500Z,75.80
2024-03-13T22:16:23.128Z,75.90
2024-03-13T22:18:25.146Z,76.00
2024-03-13T22:20:27.052Z,75.80
2024-03-13T22:22:28.992Z,75.80
2024-03-13T22:24:31.172Z,75.70
2024-03-13T22:26:33.123Z,75.80
2024-03-13T22:28:35.024Z,75.80
2024-03-13T22:30:39.932Z,75.80
2024-03-13T22:32:42.122Z,75.70
2024-03-13T22:34:44.461Z,75.80
2024-03-13T22:36:46.460Z,75.80
2024-03-13T22:38:48.493Z,75.80
2024-03-13T22:40:50.933Z,75.80
2024-03-13T22:42:57.364Z,75.80
2024-03-13T22:44:59.231Z,75.80
2024-03-13T22:47:01.108Z,75.80
2024-03-13T22:49:04.176Z,75.70
2024-03-13T22:51:06.058Z,75.70
2024-03-13T22:53:07.959Z,75.60
2024-03-13T22:55:10.757Z,75.60
2024-03-13T22:57:13.260Z,75.60
2024-03-13T22:59:15.315Z,76.00
2024-03-13T23:01:19.070Z,75.50
2024-03-13T23:03:21.062Z,76.40
2024-03-13T23:05:24.436Z,75.70
2024-03-13T23:07:27.674Z,75.80
2024-03-13T23:09:29.795Z,75.70
2024-03-13T23:11:32.505Z,75.70
2024-03-13T23:13:34.421Z,75.70
2024-03-13T23:15:36.416Z,75.80
2024-03-13T23:17:40.944Z,75.80
2024-03-13T23:19:43.916Z,75.70
2024-03-13T23:21:45.825Z,75.70
2024-03-13T23:23:49.628Z,75.80
2024-03-13T23:25:54.817Z,75.80
2024-03-13T23:27:56.680Z,75.80
2024-03-13T23:30:05.848Z,75.80
2024-03-13T23:32:08.204Z,76.00
2024-03-13T23:34:10.701Z,75.80
2024-03-13T23:36:13.865Z,76.00
2024-03-13T23:38:15.882Z,76.00
2024-03-13T23:40:17.973Z,75.90
2024-03-13T23:42:23.705Z,75.80
2024-03-13T23:44:26.593Z,75.80
2024-03-13T23:46:28.483Z,75.80
2024-03-13T23:48:31.142Z,75.70
2024-03-13T23:50:33.139Z,75.80
2024-03-13T23:52:34.973Z,76.10
2024-03-13T23:54:38.340Z,75.60
2024-03-13T23:56:42.560Z,75.70
2024-03-13T23:58:44.936Z,75.80
